Time;durP1;ratioP1;P1;durP2;ratioP2;P2;SDS_P1;SDS_P2;PMS_P1;PMS_P2;Temp;Humidity;BMP_temperature;BMP_pressure;BME280_temperature;BME280_humidity;BME280_pressure;Samples;Min_cycle;Max_cycle;Signal;HPM_P1;HPM_P2
2020/12/11 00:00:29;;;;;;;30.17;15.25;;;-0.40;99.90;;;;;;5080821;28;20062;-61
2020/12/11 00:02:55;;;;;;;29.73;14.60;;;-0.40;99.90;;;;;;5079621;28;20108;-62
2020/12/11 00:05:20;;;;;;;30.10;14.07;;;-0.50;99.90;;;;;;5081817;28;20117;-62
2020/12/11 00:07:46;;;;;;;29.92;15.05;;;-0.40;99.90;;;;;;5081567;28;20028;-63
2020/12/11 00:10:13;;;;;;;30.95;15.45;;;-0.40;99.90;;;;;;5081888;28;20036;-61
2020/12/11 00:12:40;;;;;;;32.83;15.57;;;-0.40;99.90;;;;;;5080601;28;20630;-63
2020/12/11 00:15:07;;;;;;;33.28;15.48;;;-0.40;99.90;;;;;;5052829;28;20499;-62
2020/12/11 00:17:33;;;;;;;32.83;15.48;;;-0.40;99.90;;;;;;5047491;28;20049;-62
2020/12/11 00:19:59;;;;;;;37.75;17.45;;;-0.40;99.90;;;;;;5059237;28;20123;-62
2020/12/11 00:22:25;;;;;;;34.78;17.33;;;-0.40;99.90;;;;;;5067319;28;20158;-62
2020/12/11 00:24:51;;;;;;;36.95;17.58;;;-0.50;99.90;;;;;;5051181;28;20064;-61
2020/12/11 00:27:16;;;;;;;34.83;16.80;;;-0.50;99.90;;;;;;5058423;28;20042;-61
2020/12/11 00:29:42;;;;;;;34.47;16.17;;;-0.50;99.90;;;;;;5067198;28;20036;-61
2020/12/11 00:32:08;;;;;;;32.58;15.88;;;-0.50;99.90;;;;;;5067171;28;20051;-63
2020/12/11 00:34:34;;;;;;;35.35;15.98;;;-0.40;99.90;;;;;;5051149;28;20033;-61
2020/12/11 00:37:00;;;;;;;38.45;17.25;;;-0.40;99.90;;;;;;5048080;28;20135;-61
2020/12/11 00:39:26;;;;;;;34.53;15.77;;;-0.40;99.90;;;;;;5048565;28;20120;-63
2020/12/11 00:41:52;;;;;;;37.10;16.33;;;-0.40;99.90;;;;;;5047655;28;20048;-63
2020/12/11 00:44:18;;;;;;;33.20;16.08;;;-0.40;99.90;;;;;;5047099;28;20049;-61
2020/12/11 00:46:43;;;;;;;31.00;15.95;;;-0.40;99.90;;;;;;5046807;28;20062;-63
2020/12/11 00:49:09;;;;;;;29.48;14.75;;;-0.40;99.90;;;;;;5047719;28;20049;-62
2020/12/11 00:51:34;;;;;;;34.63;16.80;;;-0.30;99.90;;;;;;5051433;28;20523;-62
2020/12/11 00:54:00;;;;;;;31.67;16.15;;;-0.40;99.90;;;;;;5065932;28;20032;-62
2020/12/11 00:56:26;;;;;;;33.88;16.65;;;-0.40;99.90;;;;;;5065732;28;20078;-62
2020/12/11 00:58:51;;;;;;;38.20;18.08;;;-0.40;99.90;;;;;;5066385;28;20041;-62
2020/12/11 01:01:17;;;;;;;35.28;17.23;;;-0.40;99.90;;;;;;5063558;28;20044;-62
2020/12/11 01:03:43;;;;;;;36.92;17.08;;;-0.40;99.90;;;;;;5065276;28;20536;-61
2020/12/11 01:06:08;;;;;;;38.65;18.55;;;-0.50;99.90;;;;;;5066822;28;20048;-62
2020/12/11 01:08:34;;;;;;;41.35;18.85;;;-0.40;99.90;;;;;;5056247;28;20037;-60
2020/12/11 01:11:00;;;;;;;40.72;18.80;;;-0.40;99.90;;;;;;5047164;28;20044;-63
2020/12/11 01:13:26;;;;;;;36.67;17.67;;;-0.50;99.90;;;;;;5055596;28;20037;-61
2020/12/11 01:15:52;;;;;;;40.63;18.27;;;-0.50;99.90;;;;;;5066590;28;20054;-62
2020/12/11 01:18:17;;;;;;;35.90;17.60;;;-0.40;99.90;;;;;;5057623;28;20033;-62
2020/12/11 01:20:43;;;;;;;33.03;16.55;;;-0.30;99.90;;;;;;5064131;28;20106;-63
2020/12/11 01:23:08;;;;;;;35.92;17.35;;;-0.40;99.90;;;;;;5062457;28;20496;-61
2020/12/11 01:25:34;;;;;;;37.20;17.63;;;-0.40;99.90;;;;;;5047217;28;20045;-60
2020/12/11 01:27:59;;;;;;;31.67;15.85;;;-0.40;99.90;;;;;;5063844;28;20032;-63
2020/12/11 01:30:25;;;;;;;37.08;17.60;;;-0.40;99.90;;;;;;5066016;28;20040;-63
2020/12/11 01:32:50;;;;;;;37.63;18.13;;;-0.40;99.90;;;;;;5060691;28;20060;-61
2020/12/11 01:35:16;;;;;;;35.33;17.27;;;-0.50;99.90;;;;;;5046273;28;20044;-62
2020/12/11 01:37:41;;;;;;;31.52;16.23;;;-0.50;99.90;;;;;;5047574;28;20044;-63
2020/12/11 01:40:07;;;;;;;36.35;17.02;;;-0.40;99.90;;;;;;5058996;28;20033;-61
2020/12/11 01:42:33;;;;;;;35.72;16.70;;;-0.40;99.90;;;;;;5062765;28;20400;-63
2020/12/11 01:44:58;;;;;;;40.53;18.13;;;-0.40;99.90;;;;;;5045740;28;20037;-61
2020/12/11 01:47:24;;;;;;;36.88;17.73;;;-0.50;99.90;;;;;;5045855;28;20049;-62
2020/12/11 01:49:52;;;;;;;35.33;17.92;;;-0.50;99.90;;;;;;5047790;28;20174;-60
2020/12/11 01:52:19;;;;;;;38.38;16.88;;;-0.50;99.90;;;;;;5047661;28;20075;-63
2020/12/11 01:54:46;;;;;;;35.65;16.90;;;-0.50;99.90;;;;;;5046864;28;20568;-61
2020/12/11 01:57:47;;;;;;;32.45;16.83;;;-0.50;99.90;;;;;;5050416;28;20079;-62
2020/12/11 02:00:13;;;;;;;38.42;18.35;;;-0.40;99.90;;;;;;5059626;28;20064;-61
2020/12/11 02:02:39;;;;;;;33.13;15.98;;;-0.40;99.90;;;;;;5064720;28;20044;-61
2020/12/11 02:05:06;;;;;;;36.05;17.52;;;-0.40;99.90;;;;;;5065127;28;20634;-62
2020/12/11 02:07:39;;;;;;;35.70;17.20;;;-0.60;99.90;;;;;;5065726;28;20520;-63
2020/12/11 02:10:09;;;;;;;32.17;16.35;;;-0.70;99.90;;;;;;5048173;28;20045;-61
2020/12/11 02:12:35;;;;;;;38.60;18.30;;;-0.60;99.90;;;;;;5045333;28;20041;-63
2020/12/11 02:15:01;;;;;;;36.03;15.95;;;-0.60;99.90;;;;;;5046703;28;20094;-62
2020/12/11 02:17:26;;;;;;;32.58;15.77;;;-0.60;99.90;;;;;;5045051;28;20045;-63
2020/12/11 02:19:56;;;;;;;31.67;16.02;;;-0.60;99.90;;;;;;5051185;28;20090;-62
2020/12/11 02:22:22;;;;;;;36.95;16.73;;;-0.70;99.90;;;;;;5044611;28;20639;-61
2020/12/11 02:24:49;;;;;;;35.13;16.75;;;-0.70;99.90;;;;;;5043410;28;20033;-62
2020/12/11 02:27:15;;;;;;;37.38;16.60;;;-0.60;99.90;;;;;;5058616;28;20032;-62
2020/12/11 02:29:41;;;;;;;40.15;18.25;;;-0.60;99.90;;;;;;5062986;28;20040;-62
2020/12/11 02:32:06;;;;;;;34.85;17.48;;;-0.60;99.90;;;;;;5065536;28;20641;-62
2020/12/11 02:34:32;;;;;;;35.67;17.27;;;-0.60;99.90;;;;;;5064849;28;20048;-62
2020/12/11 02:37:02;;;;;;;37.53;17.38;;;-0.60;99.90;;;;;;5061416;28;20498;-62
2020/12/11 02:39:28;;;;;;;37.95;17.98;;;-0.60;99.90;;;;;;5047832;28;20514;-62
2020/12/11 02:41:54;;;;;;;38.20;18.02;;;-0.60;99.90;;;;;;5046645;28;20090;-62
2020/12/11 02:44:19;;;;;;;38.45;17.13;;;-0.60;99.90;;;;;;5046565;28;20045;-62
2020/12/11 02:46:45;;;;;;;36.08;17.58;;;-0.60;99.90;;;;;;5046096;28;20045;-63
2020/12/11 02:49:11;;;;;;;37.83;16.33;;;-0.60;99.90;;;;;;5063287;28;20028;-61
2020/12/11 02:51:36;;;;;;;32.72;16.70;;;-0.60;99.90;;;;;;5061945;28;20036;-62
2020/12/11 02:54:02;;;;;;;32.65;16.08;;;-0.50;99.90;;;;;;5054594;28;20043;-60
2020/12/11 02:56:28;;;;;;;36.53;17.67;;;-0.50;99.90;;;;;;5046070;28;20551;-63
2020/12/11 02:58:53;;;;;;;39.78;18.92;;;-0.50;99.90;;;;;;5065197;28;20043;-62
2020/12/11 03:01:19;;;;;;;33.88;16.88;;;-0.50;99.90;;;;;;5045502;28;20032;-61
2020/12/11 03:03:44;;;;;;;37.00;18.23;;;-0.50;99.90;;;;;;5045668;28;20044;-62
2020/12/11 03:06:10;;;;;;;36.42;17.33;;;-0.50;99.90;;;;;;5046156;28;20045;-62
2020/12/11 03:08:35;;;;;;;40.05;19.05;;;-0.40;99.90;;;;;;5053244;28;20631;-60
2020/12/11 03:11:01;;;;;;;42.83;19.23;;;-0.50;99.90;;;;;;5065349;28;20040;-61
2020/12/11 03:13:27;;;;;;;42.95;19.67;;;-0.50;99.90;;;;;;5065595;28;20048;-62
2020/12/11 03:15:52;;;;;;;38.08;19.73;;;-0.50;99.90;;;;;;5065056;28;20527;-62
2020/12/11 03:18:18;;;;;;;38.95;19.23;;;-0.50;99.90;;;;;;5066041;28;20086;-61
2020/12/11 03:20:43;;;;;;;35.60;17.25;;;-0.50;99.90;;;;;;5048689;28;20076;-62
2020/12/11 03:23:09;;;;;;;45.58;20.35;;;-0.40;99.90;;;;;;5048569;28;20408;-61
2020/12/11 03:25:35;;;;;;;46.03;22.17;;;-0.50;99.90;;;;;;5065504;28;20041;-61
2020/12/11 03:28:00;;;;;;;44.40;20.38;;;-0.50;99.90;;;;;;5062696;28;20111;-60
2020/12/11 03:30:26;;;;;;;40.38;20.52;;;-0.50;99.90;;;;;;5060592;28;20041;-62
2020/12/11 03:32:51;;;;;;;45.53;20.70;;;-0.50;99.90;;;;;;5045212;28;20049;-62
2020/12/11 03:35:17;;;;;;;54.88;22.48;;;-0.40;99.90;;;;;;5044270;28;20484;-61
2020/12/11 03:37:42;;;;;;;45.80;21.42;;;-0.40;99.90;;;;;;5045897;28;20127;-61
2020/12/11 03:40:08;;;;;;;42.75;20.88;;;-0.40;99.90;;;;;;5065553;28;20045;-61
2020/12/11 03:42:34;;;;;;;42.88;21.23;;;-0.40;99.90;;;;;;5047694;28;20047;-61
2020/12/11 03:44:59;;;;;;;48.50;20.92;;;-0.40;99.90;;;;;;5045875;28;20047;-62
2020/12/11 03:47:25;;;;;;;46.95;22.05;;;-0.40;99.90;;;;;;5045278;28;20037;-62
2020/12/11 03:49:50;;;;;;;50.70;24.05;;;-0.40;99.90;;;;;;5047131;28;20128;-62
2020/12/11 03:52:16;;;;;;;38.85;19.90;;;-0.40;99.90;;;;;;5061695;28;20040;-62
2020/12/11 03:54:41;;;;;;;45.40;22.35;;;-0.40;99.90;;;;;;5051614;28;20071;-62
2020/12/11 03:57:07;;;;;;;68.78;20.75;;;-0.40;99.90;;;;;;5054717;28;20106;-63
2020/12/11 03:59:33;;;;;;;44.38;21.52;;;-0.40;99.90;;;;;;5069426;28;20450;-62
2020/12/11 04:01:59;;;;;;;51.00;23.05;;;-0.30;99.90;;;;;;5060892;28;20488;-63
2020/12/11 04:04:24;;;;;;;37.45;18.88;;;-0.40;99.90;;;;;;5048304;28;20408;-61
2020/12/11 04:06:50;;;;;;;36.17;18.63;;;-0.40;99.90;;;;;;5049460;28;20033;-60
2020/12/11 04:09:15;;;;;;;44.00;20.98;;;-0.30;99.90;;;;;;5063249;28;20028;-61
2020/12/11 04:11:41;;;;;;;41.47;19.92;;;-0.40;99.90;;;;;;5068529;28;20043;-61
2020/12/11 04:14:07;;;;;;;46.22;22.77;;;-0.40;99.90;;;;;;5068287;28;20495;-62
2020/12/11 04:16:35;;;;;;;39.00;20.85;;;-0.40;99.90;;;;;;5068043;28;20059;-61
2020/12/11 04:19:01;;;;;;;37.05;20.10;;;-0.40;99.90;;;;;;5065607;28;20041;-63
2020/12/11 04:21:27;;;;;;;36.30;19.17;;;-0.40;99.90;;;;;;5048644;28;20125;-62
2020/12/11 04:23:52;;;;;;;35.28;19.08;;;-0.40;99.90;;;;;;5066055;28;20044;-62
2020/12/11 04:26:18;;;;;;;30.65;17.13;;;-0.40;99.90;;;;;;5067639;28;20488;-62
2020/12/11 04:28:43;;;;;;;34.67;18.23;;;-0.30;99.90;;;;;;5066959;28;20094;-63
2020/12/11 04:31:09;;;;;;;34.28;18.13;;;-0.30;99.90;;;;;;5068030;28;20033;-62
2020/12/11 04:33:35;;;;;;;32.55;18.27;;;-0.40;99.90;;;;;;5054524;28;20064;-60
2020/12/11 04:36:01;;;;;;;36.80;19.92;;;-0.40;99.90;;;;;;5048024;28;20041;-62
2020/12/11 04:38:27;;;;;;;31.63;16.83;;;-0.30;99.90;;;;;;5047606;28;20059;-63
2020/12/11 04:41:00;;;;;;;29.00;16.75;;;-0.30;99.90;;;;;;5047462;28;20041;-63
2020/12/11 04:43:26;;;;;;;26.75;15.27;;;-0.30;99.90;;;;;;5055905;28;20067;-62
2020/12/11 04:45:53;;;;;;;30.42;16.95;;;-0.30;99.90;;;;;;5061561;28;20032;-63
2020/12/11 04:48:19;;;;;;;27.27;15.93;;;-0.20;99.90;;;;;;5053484;28;20102;-61
2020/12/11 04:50:48;;;;;;;29.73;15.75;;;-0.20;99.90;;;;;;5048373;28;20512;-62
2020/12/11 04:53:15;;;;;;;24.33;13.65;;;-0.10;99.90;;;;;;5048231;28;20183;-63
2020/12/11 04:55:43;;;;;;;24.50;13.32;;;-0.10;99.90;;;;;;5048791;28;20041;-61
2020/12/11 04:58:14;;;;;;;23.35;13.43;;;-0.10;99.90;;;;;;5063304;28;20047;-63
2020/12/11 05:00:41;;;;;;;25.10;13.35;;;-0.10;99.90;;;;;;5049937;28;20037;-62
2020/12/11 05:03:11;;;;;;;25.05;13.77;;;-0.10;99.90;;;;;;5048160;28;20041;-62
2020/12/11 05:05:37;;;;;;;24.25;13.23;;;-0.10;99.90;;;;;;5062974;28;20113;-62
2020/12/11 05:08:19;;;;;;;25.17;13.43;;;-0.20;99.90;;;;;;5068173;28;20044;-59
2020/12/11 05:10:46;;;;;;;23.75;13.73;;;-0.10;99.90;;;;;;5068481;28;20127;-63
2020/12/11 05:13:25;;;;;;;24.83;13.05;;;-0.10;99.90;;;;;;5067538;28;20044;-62
2020/12/11 05:16:15;;;;;;;25.33;14.00;;;0.00;99.90;;;;;;5062790;28;20133;-62
2020/12/11 05:18:41;;;;;;;24.00;13.63;;;0.00;99.90;;;;;;5068468;28;20504;-62
2020/12/11 05:21:33;;;;;;;22.20;12.80;;;0.10;99.90;;;;;;5067998;28;20059;-61
2020/12/11 05:24:01;;;;;;;26.35;14.32;;;0.10;99.90;;;;;;5055838;28;20531;-62
2020/12/11 05:26:34;;;;;;;24.27;13.77;;;0.10;99.90;;;;;;5053274;28;20047;-62
2020/12/11 05:29:00;;;;;;;24.80;13.50;;;0.00;99.90;;;;;;5068472;28;20781;-64
2020/12/11 05:31:26;;;;;;;22.98;13.30;;;0.10;99.90;;;;;;5065957;28;20113;-63
2020/12/11 05:34:04;;;;;;;25.38;14.35;;;0.10;99.90;;;;;;5067379;28;20282;-63
2020/12/11 05:36:53;;;;;;;26.05;13.70;;;0.10;99.90;;;;;;5066590;28;20044;-62
2020/12/11 05:39:25;;;;;;;29.45;13.70;;;0.10;99.90;;;;;;5059162;28;20083;-61
2020/12/11 05:41:50;;;;;;;21.90;12.10;;;0.10;99.90;;;;;;5048600;28;20512;-63
2020/12/11 05:44:36;;;;;;;25.95;13.38;;;0.20;99.90;;;;;;5047702;28;20120;-62
2020/12/11 05:47:22;;;;;;;25.07;13.60;;;0.20;99.90;;;;;;5059252;28;20039;-60
2020/12/11 05:49:48;;;;;;;20.00;11.73;;;0.30;99.90;;;;;;5067055;28;20047;-59
2020/12/11 05:52:15;;;;;;;21.33;12.23;;;0.20;99.90;;;;;;5068179;28;20267;-64
2020/12/11 05:54:43;;;;;;;23.33;13.38;;;0.30;99.90;;;;;;5057913;28;20052;-62
2020/12/11 05:57:10;;;;;;;25.40;13.70;;;0.30;99.90;;;;;;5047124;28;20051;-63
2020/12/11 05:59:37;;;;;;;20.45;12.23;;;0.20;99.90;;;;;;5046551;28;20048;-62
2020/12/11 06:02:03;;;;;;;22.27;12.77;;;0.20;99.90;;;;;;5064057;28;20028;-62
2020/12/11 06:04:29;;;;;;;23.63;12.60;;;0.20;99.90;;;;;;5062558;28;20048;-62
2020/12/11 06:06:57;;;;;;;19.40;11.43;;;0.20;99.90;;;;;;5047005;28;20041;-62
2020/12/11 06:09:50;;;;;;;21.15;11.43;;;0.20;99.90;;;;;;5047821;28;20049;-58
2020/12/11 06:12:26;;;;;;;21.92;12.18;;;0.20;99.90;;;;;;5045194;28;20052;-62
2020/12/11 06:15:02;;;;;;;20.20;11.95;;;0.20;99.90;;;;;;5051165;28;20534;-66
2020/12/11 06:17:33;;;;;;;24.25;13.10;;;0.20;99.90;;;;;;5065909;28;20044;-63
2020/12/11 06:20:01;;;;;;;20.73;12.02;;;0.20;99.90;;;;;;5063488;28;20044;-64
2020/12/11 06:22:26;;;;;;;25.17;13.38;;;0.20;99.90;;;;;;5047129;28;19928;-64
2020/12/11 06:24:52;;;;;;;21.75;12.70;;;0.10;99.90;;;;;;5045331;28;20041;-64
2020/12/11 06:27:30;;;;;;;24.42;13.15;;;0.20;99.90;;;;;;5057644;28;20493;-62
2020/12/11 06:29:56;;;;;;;22.15;12.57;;;0.20;99.90;;;;;;5060652;28;20040;-64
2020/12/11 06:32:32;;;;;;;25.42;14.23;;;0.20;99.90;;;;;;5058439;28;20054;-65
2020/12/11 06:35:15;;;;;;;23.83;13.15;;;0.20;99.90;;;;;;5058184;28;20040;-64
2020/12/11 06:37:41;;;;;;;25.55;14.52;;;0.10;99.90;;;;;;5064828;28;20702;-63
2020/12/11 06:40:07;;;;;;;24.17;12.93;;;0.10;99.90;;;;;;5065839;28;20041;-62
2020/12/11 06:42:35;;;;;;;28.40;14.05;;;0.20;99.90;;;;;;5061743;28;20072;-63
2020/12/11 06:45:23;;;;;;;25.25;13.20;;;0.20;99.90;;;;;;5057737;28;20035;-64
2020/12/11 06:47:54;;;;;;;25.92;13.90;;;0.20;99.90;;;;;;5064207;28;20110;-63
2020/12/11 06:50:22;;;;;;;23.85;13.25;;;0.20;99.90;;;;;;5058096;28;20065;-63
2020/12/11 06:52:48;;;;;;;23.75;13.70;;;0.10;99.90;;;;;;5058089;28;20420;-63
2020/12/11 06:55:16;;;;;;;26.48;13.98;;;0.10;99.90;;;;;;5065994;28;20074;-63
2020/12/11 06:57:43;;;;;;;25.90;14.60;;;0.10;99.90;;;;;;5081390;28;20071;-63
2020/12/11 07:00:30;;;;;;;25.40;13.48;;;0.20;99.90;;;;;;5065003;28;20090;-64
2020/12/11 07:03:14;;;;;;;25.23;13.77;;;0.20;99.90;;;;;;5043585;28;20049;-63
2020/12/11 07:05:40;;;;;;;27.27;14.68;;;0.30;99.90;;;;;;5050060;28;20041;-61
2020/12/11 07:08:15;;;;;;;27.25;14.63;;;0.30;99.90;;;;;;5066036;28;20542;-64
2020/12/11 07:10:43;;;;;;;23.03;12.73;;;0.40;99.90;;;;;;5065017;28;20086;-63
2020/12/11 07:13:12;;;;;;;29.98;15.88;;;0.30;99.90;;;;;;5063465;28;20048;-61
2020/12/11 07:15:38;;;;;;;27.60;15.02;;;0.30;99.90;;;;;;5060119;28;20051;-63
2020/12/11 07:18:11;;;;;;;26.92;14.32;;;0.20;99.90;;;;;;5062264;28;20044;-64
2020/12/11 07:20:37;;;;;;;30.67;15.70;;;0.20;99.90;;;;;;5064981;28;20090;-63
2020/12/11 07:23:03;;;;;;;30.83;16.75;;;0.20;99.90;;;;;;5052315;28;20045;-61
2020/12/11 07:25:29;;;;;;;26.98;15.00;;;0.20;99.90;;;;;;5067058;28;20051;-64
2020/12/11 07:28:00;;;;;;;32.22;17.58;;;0.20;99.90;;;;;;5063260;28;20037;-63
2020/12/11 07:30:26;;;;;;;31.20;16.88;;;0.10;99.90;;;;;;5048670;28;20044;-62
2020/12/11 07:32:53;;;;;;;33.30;16.88;;;0.10;99.90;;;;;;5048056;28;20048;-63
2020/12/11 07:35:20;;;;;;;33.88;17.38;;;0.00;99.90;;;;;;5049591;28;20139;-62
2020/12/11 07:37:53;;;;;;;34.17;17.17;;;0.10;99.90;;;;;;5049201;28;20041;-64
2020/12/11 07:40:20;;;;;;;36.08;17.95;;;0.10;99.90;;;;;;5050763;28;20119;-64
2020/12/11 07:42:48;;;;;;;37.22;19.20;;;0.00;99.90;;;;;;5050317;28;20052;-63
2020/12/11 07:45:28;;;;;;;34.60;17.65;;;-0.10;99.90;;;;;;5063936;28;20456;-63
2020/12/11 07:47:55;;;;;;;34.20;17.55;;;-0.20;99.90;;;;;;5066431;28;20048;-62
2020/12/11 07:50:25;;;;;;;39.10;19.42;;;-0.20;99.90;;;;;;5069060;28;20119;-64
2020/12/11 07:52:56;;;;;;;37.17;19.30;;;-0.20;99.90;;;;;;5068146;28;20049;-61
2020/12/11 07:55:23;;;;;;;30.52;16.05;;;-0.10;99.90;;;;;;5056337;28;20116;-62
2020/12/11 07:57:53;;;;;;;33.22;17.58;;;-0.10;99.90;;;;;;5050794;28;20435;-62
2020/12/11 08:00:20;;;;;;;38.42;19.85;;;-0.10;99.90;;;;;;5053125;28;20040;-62
2020/12/11 08:02:51;;;;;;;34.03;17.48;;;0.00;99.90;;;;;;5048857;28;20578;-60
2020/12/11 08:05:17;;;;;;;35.33;18.10;;;0.00;99.90;;;;;;5052996;28;20416;-59
2020/12/11 08:07:48;;;;;;;31.42;17.40;;;-0.10;99.90;;;;;;5048808;28;20041;-62
2020/12/11 08:10:16;;;;;;;37.25;19.00;;;-0.10;99.90;;;;;;5049599;28;20446;-58
2020/12/11 08:12:42;;;;;;;38.63;18.67;;;0.00;99.90;;;;;;5048941;28;20044;-61
2020/12/11 08:15:12;;;;;;;36.22;18.63;;;0.00;99.90;;;;;;5056744;28;20504;-62
2020/12/11 08:17:39;;;;;;;34.83;18.55;;;0.00;99.90;;;;;;5069133;28;20040;-62
2020/12/11 08:20:07;;;;;;;40.85;19.10;;;0.00;99.90;;;;;;5057700;28;20041;-62
2020/12/11 08:22:38;;;;;;;40.35;19.95;;;0.00;99.90;;;;;;5066806;28;20040;-61
2020/12/11 08:25:23;;;;;;;41.88;20.00;;;0.00;99.90;;;;;;5068945;28;20089;-63
2020/12/11 08:27:50;;;;;;;41.80;18.88;;;0.00;99.90;;;;;;5069030;28;20083;-61
2020/12/11 08:30:16;;;;;;;32.65;17.45;;;0.00;99.90;;;;;;5062490;28;20040;-61
2020/12/11 08:32:47;;;;;;;35.85;17.83;;;0.10;99.90;;;;;;5069007;28;20121;-62
2020/12/11 08:35:20;;;;;;;34.03;17.75;;;0.20;99.90;;;;;;5068419;28;20044;-62
2020/12/11 08:37:58;;;;;;;34.78;17.15;;;0.10;99.90;;;;;;5068865;28;20125;-63
2020/12/11 08:40:26;;;;;;;33.58;18.75;;;0.10;99.90;;;;;;5053253;28;20684;-61
2020/12/11 08:45:59;;;;;;;33.42;17.17;;;0.20;99.90;;;;;;5062793;28;20488;-62
2020/12/11 08:48:33;;;;;;;33.60;17.88;;;0.20;99.90;;;;;;5065670;28;20504;-59
2020/12/11 08:51:06;;;;;;;34.55;18.40;;;0.30;99.90;;;;;;5047617;28;20041;-61
2020/12/11 08:53:38;;;;;;;31.95;17.52;;;0.30;99.90;;;;;;5058156;28;20044;-62
2020/12/11 08:56:07;;;;;;;32.17;17.77;;;0.30;99.90;;;;;;5066900;28;20044;-60
2020/12/11 08:58:34;;;;;;;36.45;18.38;;;0.40;99.90;;;;;;5055389;28;20113;-60
2020/12/11 09:00:59;;;;;;;33.33;18.08;;;0.30;99.90;;;;;;5060813;28;20045;-62
2020/12/11 09:03:25;;;;;;;37.95;19.52;;;0.20;99.90;;;;;;5047943;28;20527;-63
2020/12/11 09:05:50;;;;;;;33.15;18.15;;;0.30;99.90;;;;;;5049046;28;20580;-62
2020/12/11 09:08:16;;;;;;;35.17;19.25;;;0.30;99.90;;;;;;5048595;28;20045;-61
2020/12/11 09:10:41;;;;;;;36.15;18.33;;;0.40;99.90;;;;;;5051168;28;20656;-55
2020/12/11 09:13:07;;;;;;;31.85;16.48;;;0.40;99.90;;;;;;5048223;28;20044;-59
2020/12/11 09:15:33;;;;;;;33.63;17.17;;;0.50;99.90;;;;;;5056008;28;20137;-63
2020/12/11 09:17:58;;;;;;;34.25;18.33;;;0.50;99.90;;;;;;5068055;28;20070;-63
2020/12/11 09:20:24;;;;;;;33.10;17.05;;;0.60;99.90;;;;;;5059026;28;20108;-61
2020/12/11 09:22:49;;;;;;;36.35;19.27;;;0.60;99.90;;;;;;5047854;28;20052;-60
2020/12/11 09:25:16;;;;;;;40.47;20.23;;;0.60;99.90;;;;;;5056584;28;20403;-61
2020/12/11 09:27:43;;;;;;;34.47;18.55;;;0.60;99.90;;;;;;5062801;28;20121;-61
2020/12/11 09:33:11;;;;;;;39.90;20.38;;;0.60;99.90;;;;;;5047917;28;20055;-61
2020/12/11 09:35:37;;;;;;;36.88;18.25;;;0.60;99.90;;;;;;5047122;28;20041;-61
2020/12/11 09:38:02;;;;;;;40.38;19.30;;;0.50;99.90;;;;;;5047974;28;20099;-62
2020/12/11 09:40:44;;;;;;;38.05;20.30;;;0.50;99.90;;;;;;5047848;28;20527;-63
2020/12/11 09:46:15;;;;;;;39.83;20.33;;;0.50;99.90;;;;;;5062680;28;20036;-62
2020/12/11 09:54:07;;;;;;;39.83;20.08;;;0.50;99.90;;;;;;5047953;28;20048;-60
2020/12/11 09:56:33;;;;;;;37.60;19.33;;;0.50;99.90;;;;;;5047204;28;20132;-61
2020/12/11 09:59:02;;;;;;;36.80;19.17;;;0.50;99.90;;;;;;5047216;28;20190;-61
2020/12/11 10:04:33;;;;;;;42.50;20.83;;;0.60;99.90;;;;;;5004775;28;20529;-58
2020/12/11 10:06:58;;;;;;;38.60;19.85;;;0.60;99.90;;;;;;5002942;28;20041;-61
2020/12/11 10:09:24;;;;;;;44.30;22.15;;;0.50;99.90;;;;;;5024426;28;20073;-61
2020/12/11 10:11:51;;;;;;;47.92;23.50;;;0.50;99.90;;;;;;5061197;28;20435;-63
2020/12/11 10:14:24;;;;;;;47.55;22.08;;;0.50;99.90;;;;;;5062411;28;20037;-62
2020/12/11 10:16:54;;;;;;;41.00;20.77;;;0.60;99.90;;;;;;5064203;28;20503;-61
2020/12/11 10:19:23;;;;;;;44.75;21.95;;;0.70;99.90;;;;;;5058090;28;20066;-62
2020/12/11 10:21:49;;;;;;;44.65;22.80;;;0.70;99.90;;;;;;5055034;28;20043;-62
2020/12/11 10:24:15;;;;;;;42.78;21.30;;;0.70;99.90;;;;;;5061578;28;20036;-58
2020/12/11 10:26:42;;;;;;;43.00;22.10;;;0.70;99.90;;;;;;5066099;28;20052;-59
2020/12/11 10:29:08;;;;;;;45.63;24.67;;;0.60;99.90;;;;;;5051058;28;20037;-61
2020/12/11 10:31:34;;;;;;;43.38;21.38;;;0.70;99.90;;;;;;5044677;28;20044;-61
2020/12/11 10:34:00;;;;;;;41.05;21.65;;;0.80;99.90;;;;;;5046652;28;20048;-62
2020/12/11 10:36:30;;;;;;;37.63;19.67;;;1.00;99.90;;;;;;5049218;28;20045;-63
2020/12/11 10:38:56;;;;;;;38.10;19.50;;;1.10;99.90;;;;;;5045880;28;20037;-61
2020/12/11 10:41:23;;;;;;;37.13;19.05;;;1.10;99.90;;;;;;5045991;28;20060;-62
2020/12/11 10:43:50;;;;;;;34.17;17.20;;;1.10;99.90;;;;;;5044970;28;20090;-62
2020/12/11 10:46:15;;;;;;;35.72;19.33;;;1.10;99.90;;;;;;5060810;28;20040;-62
2020/12/11 10:48:41;;;;;;;35.38;18.67;;;1.10;99.90;;;;;;5056711;28;20040;-63
2020/12/11 10:51:13;;;;;;;37.80;19.40;;;1.10;99.90;;;;;;5055531;28;20045;-63
2020/12/11 10:53:40;;;;;;;38.35;19.25;;;1.00;99.90;;;;;;5045331;28;20056;-60
2020/12/11 10:56:06;;;;;;;46.67;24.33;;;0.90;99.90;;;;;;5046515;28;20051;-62
2020/12/11 10:58:32;;;;;;;36.38;19.10;;;0.90;99.90;;;;;;5047862;28;20472;-59
2020/12/11 11:00:58;;;;;;;39.00;19.83;;;1.00;99.90;;;;;;5064062;28;20044;-63
2020/12/11 11:03:27;;;;;;;44.30;22.58;;;1.10;99.90;;;;;;5050141;28;20049;-61
2020/12/11 11:05:53;;;;;;;37.40;19.35;;;1.20;99.90;;;;;;5045271;28;20041;-63
2020/12/11 11:08:19;;;;;;;36.47;19.15;;;1.30;99.90;;;;;;5045306;28;20044;-61
2020/12/11 11:10:48;;;;;;;33.97;18.13;;;1.40;99.90;;;;;;5072510;28;20864;-62
2020/12/11 11:13:36;;;;;;;35.08;18.30;;;1.40;99.90;;;;;;5045085;28;20079;-61
2020/12/11 11:16:03;;;;;;;34.10;18.40;;;1.30;99.90;;;;;;5051571;28;20041;-61
2020/12/11 11:18:36;;;;;;;32.83;17.88;;;1.40;99.90;;;;;;5061565;28;20045;-62
2020/12/11 11:21:12;;;;;;;34.95;18.40;;;1.50;99.90;;;;;;5053092;28;20045;-61
2020/12/11 11:26:23;;;;;;;36.22;16.80;;;1.50;99.90;;;;;;5064299;28;20399;-61
2020/12/11 11:28:48;;;;;;;37.67;19.85;;;1.60;99.90;;;;;;5065131;28;20511;-60
2020/12/11 11:31:14;;;;;;;40.40;21.13;;;1.60;99.90;;;;;;5061430;28;20033;-60
2020/12/11 11:33:40;;;;;;;32.10;18.02;;;1.60;99.90;;;;;;5064538;28;20037;-61
2020/12/11 11:36:05;;;;;;;34.30;18.17;;;1.70;99.90;;;;;;5063790;28;20048;-63
2020/12/11 11:38:31;;;;;;;35.58;19.17;;;1.80;99.90;;;;;;5065069;28;20577;-63
2020/12/11 11:40:56;;;;;;;33.67;17.98;;;2.00;99.90;;;;;;5065447;28;20072;-65
2020/12/11 11:43:55;;;;;;;35.78;18.92;;;2.00;99.90;;;;;;5064852;28;20058;-57
2020/12/11 11:46:20;;;;;;;37.45;18.45;;;2.10;99.90;;;;;;5061684;28;20043;-58
2020/12/11 11:48:46;;;;;;;32.05;17.73;;;2.10;99.90;;;;;;5065506;28;20048;-63
2020/12/11 11:51:31;;;;;;;32.05;17.00;;;2.20;99.90;;;;;;5062998;28;20052;-63
2020/12/11 11:53:57;;;;;;;31.10;17.17;;;2.20;99.90;;;;;;5064654;28;20040;-63
2020/12/11 11:56:22;;;;;;;32.85;16.77;;;2.30;99.90;;;;;;5064322;28;20039;-66
2020/12/11 11:58:48;;;;;;;33.53;17.10;;;2.30;99.90;;;;;;5053346;28;20072;-62
2020/12/11 12:01:14;;;;;;;38.17;19.95;;;2.20;99.90;;;;;;5064050;28;20419;-65
2020/12/11 12:03:39;;;;;;;35.20;19.10;;;2.10;99.90;;;;;;5048382;28;20469;-63
2020/12/11 12:06:06;;;;;;;32.55;17.67;;;2.20;99.90;;;;;;5044550;28;20527;-62
2020/12/11 12:08:31;;;;;;;32.38;16.40;;;2.20;99.90;;;;;;5044429;28;20048;-61
2020/12/11 12:10:57;;;;;;;31.83;17.48;;;2.20;99.90;;;;;;5047221;28;20045;-64
2020/12/11 12:13:22;;;;;;;33.50;17.90;;;2.00;99.90;;;;;;5047869;28;20075;-65
2020/12/11 12:15:54;;;;;;;31.98;16.60;;;2.00;99.90;;;;;;5057710;28;20048;-63
2020/12/11 12:18:19;;;;;;;27.30;14.70;;;2.00;99.90;;;;;;5067919;28;20047;-60
2020/12/11 12:20:59;;;;;;;32.75;17.27;;;2.00;99.90;;;;;;5059527;28;20037;-64
2020/12/11 12:31:19;;;;;;;33.22;17.15;;;1.90;99.90;;;;;;5046301;28;20102;-62
2020/12/11 12:34:35;;;;;;;35.80;18.98;;;1.90;99.90;;;;;;5048085;28;20041;-63
2020/12/11 12:39:24;;;;;;;49.55;25.45;;;2.00;99.90;;;;;;5048477;28;20102;-63
2020/12/11 12:44:34;;;;;;;36.83;19.00;;;2.00;99.90;;;;;;5051215;28;20509;-64
2020/12/11 12:47:00;;;;;;;42.03;21.33;;;1.90;99.90;;;;;;5057654;28;20067;-63
2020/12/11 12:49:25;;;;;;;39.67;20.42;;;1.80;99.90;;;;;;5068099;28;20045;-63
2020/12/11 12:51:52;;;;;;;45.38;21.38;;;1.60;99.90;;;;;;5059187;28;20390;-63
2020/12/11 12:54:17;;;;;;;51.22;27.63;;;1.50;99.90;;;;;;5048024;28;20424;-62
2020/12/11 12:56:48;;;;;;;42.70;21.45;;;1.50;99.90;;;;;;5046332;28;20033;-63
2020/12/11 12:59:24;;;;;;;42.03;20.13;;;1.50;99.90;;;;;;5048465;28;20119;-64
2020/12/11 13:04:53;;;;;;;43.10;19.88;;;1.60;99.90;;;;;;5047810;28;20127;-63
2020/12/11 13:07:19;;;;;;;40.03;20.13;;;1.50;99.90;;;;;;5048398;28;20044;-63
2020/12/11 13:09:45;;;;;;;41.38;19.55;;;1.50;99.90;;;;;;5048025;28;20048;-64
2020/12/11 13:12:11;;;;;;;38.28;19.45;;;1.40;99.90;;;;;;5061250;28;20047;-62
2020/12/11 13:14:37;;;;;;;41.15;19.75;;;1.40;99.90;;;;;;5062492;28;20044;-63